Time;durP1;ratioP1;P1;durP2;ratioP2;P2;SDS_P1;SDS_P2;PMS_P1;PMS_P2;Temp;Humidity;BMP_temperature;BMP_pressure;BME280_temperature;BME280_humidity;BME280_pressure;Samples;Min_cycle;Max_cycle;Signal;HPM_P1;HPM_P2
2021/10/31 00:00:07;;;;;;;14.20;4.97;;;11.40;99.90;;;;;;5052591;28;20234;-87
2021/10/31 00:02:34;;;;;;;9.93;4.27;;;11.40;99.90;;;;;;5052652;28;20210;-85
2021/10/31 00:05:01;;;;;;;10.90;4.80;;;11.40;99.90;;;;;;5053637;28;20206;-87
2021/10/31 00:07:29;;;;;;;16.70;5.90;;;11.30;99.90;;;;;;5065792;28;20201;-87
2021/10/31 00:09:56;;;;;;;8.43;4.77;;;11.30;99.90;;;;;;5073224;28;20217;-85
2021/10/31 00:12:22;;;;;;;11.20;5.53;;;11.30;99.90;;;;;;5073469;28;20190;-86
2021/10/31 00:14:49;;;;;;;13.37;5.33;;;11.30;99.90;;;;;;5072193;28;20235;-86
2021/10/31 00:17:16;;;;;;;12.77;6.40;;;11.20;99.90;;;;;;5060705;28;20213;-85
2021/10/31 00:19:43;;;;;;;15.83;6.37;;;11.20;99.90;;;;;;5052524;28;20202;-82
2021/10/31 00:22:10;;;;;;;12.17;5.90;;;11.20;99.90;;;;;;5052754;28;20486;-83
2021/10/31 00:24:38;;;;;;;11.97;6.43;;;11.20;99.90;;;;;;5056615;28;20204;-88
2021/10/31 00:27:05;;;;;;;13.07;6.87;;;11.10;99.90;;;;;;5071829;28;20186;-83
2021/10/31 00:29:32;;;;;;;12.40;5.63;;;11.10;99.90;;;;;;5072120;28;20205;-86
2021/10/31 00:31:59;;;;;;;11.43;5.90;;;11.10;99.90;;;;;;5053024;28;20209;-85
2021/10/31 00:34:25;;;;;;;12.37;6.30;;;11.10;99.90;;;;;;5051291;28;20585;-88
2021/10/31 00:36:52;;;;;;;14.90;6.80;;;11.10;99.90;;;;;;5053234;28;20194;-85
2021/10/31 00:39:19;;;;;;;16.13;7.13;;;11.10;99.90;;;;;;5052215;28;20202;-88
2021/10/31 00:41:47;;;;;;;12.90;6.47;;;11.10;99.90;;;;;;5052203;28;20252;-85
2021/10/31 00:44:14;;;;;;;12.33;6.40;;;11.10;99.90;;;;;;5052371;28;20292;-87
2021/10/31 00:46:41;;;;;;;15.90;6.70;;;11.10;99.90;;;;;;5052638;28;20205;-83
2021/10/31 00:49:08;;;;;;;16.47;7.37;;;11.10;99.90;;;;;;5051742;28;20214;-86
2021/10/31 00:51:35;;;;;;;15.50;7.30;;;11.20;99.90;;;;;;5051095;28;20206;-84
2021/10/31 00:54:03;;;;;;;15.53;6.93;;;11.20;99.90;;;;;;5050836;28;20230;-85
2021/10/31 00:56:31;;;;;;;15.43;7.17;;;11.10;99.90;;;;;;5050337;28;20210;-87
2021/10/31 00:58:59;;;;;;;14.67;6.73;;;11.10;99.90;;;;;;5068495;28;20258;-85
2021/10/31 01:01:28;;;;;;;10.87;6.47;;;11.10;99.90;;;;;;5071001;28;20659;-85
2021/10/31 01:03:56;;;;;;;14.37;7.13;;;11.00;99.90;;;;;;5071565;28;20197;-85
2021/10/31 01:07:09;;;;;;;18.67;7.63;;;11.10;99.90;;;;;;5070788;28;20274;-87
2021/10/31 01:09:50;;;;;;;14.77;7.47;;;11.00;99.90;;;;;;5006903;28;20210;-87
2021/10/31 01:12:31;;;;;;;17.10;7.77;;;11.00;99.90;;;;;;5009963;28;20215;-88
2021/10/31 01:15:17;;;;;;;12.73;6.97;;;10.90;99.90;;;;;;5029482;28;20240;-84
2021/10/31 01:18:00;;;;;;;14.17;7.07;;;10.90;99.90;;;;;;5051002;28;20232;-86
2021/10/31 01:20:39;;;;;;;13.70;7.07;;;10.90;99.90;;;;;;5051649;28;20209;-86
2021/10/31 01:23:20;;;;;;;13.63;6.57;;;10.90;99.90;;;;;;5052114;28;20197;-88
2021/10/31 01:26:12;;;;;;;14.63;6.20;;;10.80;99.90;;;;;;5051876;28;20264;-87
2021/10/31 01:29:00;;;;;;;11.30;6.40;;;10.80;99.90;;;;;;5052259;28;20228;-86
2021/10/31 01:31:39;;;;;;;11.87;6.67;;;10.80;99.90;;;;;;5062514;28;20519;-82
2021/10/31 01:34:18;;;;;;;11.57;6.73;;;10.80;99.90;;;;;;5071552;28;20225;-86
2021/10/31 01:36:57;;;;;;;17.83;6.67;;;10.80;99.90;;;;;;5067652;28;20217;-87
2021/10/31 01:39:30;;;;;;;12.13;6.80;;;10.80;99.90;;;;;;5050845;28;20796;-84
2021/10/31 01:42:11;;;;;;;13.60;7.17;;;10.70;99.90;;;;;;5052554;28;20206;-88
2021/10/31 01:44:47;;;;;;;15.13;8.50;;;10.70;99.90;;;;;;5051439;28;20198;-87
2021/10/31 01:47:28;;;;;;;17.10;7.27;;;10.70;99.90;;;;;;5052044;28;20245;-86
2021/10/31 01:49:58;;;;;;;14.77;8.23;;;10.70;99.90;;;;;;5051827;28;20542;-87
2021/10/31 01:52:31;;;;;;;12.70;8.27;;;10.60;99.90;;;;;;5050946;28;20274;-87
2021/10/31 01:55:01;;;;;;;16.57;7.80;;;10.60;99.90;;;;;;5051629;28;20233;-82
2021/10/31 01:57:28;;;;;;;13.97;7.23;;;10.60;99.90;;;;;;5050969;28;20202;-85
2021/10/31 01:59:59;;;;;;;13.27;7.33;;;10.60;99.90;;;;;;5051243;28;20233;-87
2021/10/31 02:02:30;;;;;;;11.67;7.43;;;10.50;99.90;;;;;;5050918;28;20279;-85
2021/10/31 02:04:58;;;;;;;12.33;7.37;;;10.50;99.90;;;;;;5050751;28;20205;-84
2021/10/31 02:07:26;;;;;;;16.73;8.23;;;10.50;99.90;;;;;;5050005;28;20190;-86
2021/10/31 02:09:54;;;;;;;14.03;7.83;;;10.40;99.90;;;;;;5069379;28;20202;-86
2021/10/31 02:12:22;;;;;;;14.87;7.57;;;10.40;99.90;;;;;;5070510;28;20633;-84
2021/10/31 02:14:50;;;;;;;12.43;7.83;;;10.40;99.90;;;;;;5070879;28;20813;-86
2021/10/31 02:17:18;;;;;;;12.70;7.47;;;10.40;99.90;;;;;;5071325;28;20506;-88
2021/10/31 02:19:48;;;;;;;15.07;7.57;;;10.30;99.90;;;;;;5070620;28;20200;-82
2021/10/31 02:22:19;;;;;;;18.00;7.63;;;10.30;99.90;;;;;;5071080;28;20209;-86
2021/10/31 02:24:48;;;;;;;16.50;7.30;;;10.40;99.90;;;;;;5071103;28;20706;-86
2021/10/31 02:27:17;;;;;;;11.53;6.80;;;10.40;99.90;;;;;;5056180;28;20775;-86
2021/10/31 02:29:52;;;;;;;11.13;6.80;;;10.30;99.90;;;;;;5051458;28;20209;-87
2021/10/31 02:32:21;;;;;;;12.03;6.93;;;10.30;99.90;;;;;;5055301;28;20193;-87
2021/10/31 02:34:48;;;;;;;16.10;6.97;;;10.30;99.90;;;;;;5054310;28;20613;-84
2021/10/31 02:37:14;;;;;;;15.50;7.33;;;10.20;99.90;;;;;;5054252;28;20202;-89
2021/10/31 02:39:42;;;;;;;12.10;7.43;;;10.20;99.90;;;;;;5052042;28;20198;-87
2021/10/31 02:42:10;;;;;;;15.33;7.87;;;10.20;99.90;;;;;;5054789;28;20213;-86
2021/10/31 02:44:37;;;;;;;16.87;7.43;;;10.20;99.90;;;;;;5055039;28;20213;-85
2021/10/31 02:47:07;;;;;;;13.60;7.37;;;10.20;99.90;;;;;;5054881;28;20213;-87
2021/10/31 02:49:34;;;;;;;13.53;7.40;;;10.20;99.90;;;;;;5055270;28;20190;-88
2021/10/31 02:52:03;;;;;;;13.87;8.27;;;10.20;99.90;;;;;;5054681;28;20198;-83
2021/10/31 02:54:37;;;;;;;17.70;9.67;;;10.20;99.90;;;;;;5054624;28;20228;-85
2021/10/31 02:57:13;;;;;;;14.57;8.53;;;10.10;99.90;;;;;;5055547;28;20195;-85
2021/10/31 02:59:47;;;;;;;21.33;9.10;;;10.10;99.90;;;;;;5054571;28;20601;-86
2021/10/31 03:02:15;;;;;;;13.47;8.87;;;10.10;99.90;;;;;;5074272;28;20554;-85
2021/10/31 03:04:44;;;;;;;18.37;9.33;;;10.10;99.90;;;;;;5074329;28;20237;-87
2021/10/31 03:07:11;;;;;;;16.40;9.47;;;10.10;99.90;;;;;;5074719;28;20580;-85
2021/10/31 03:09:38;;;;;;;15.50;9.50;;;10.10;99.90;;;;;;5069951;28;20206;-86
2021/10/31 03:12:07;;;;;;;17.90;9.97;;;10.00;99.90;;;;;;5054251;28;20198;-85
2021/10/31 03:14:37;;;;;;;20.77;10.43;;;10.00;99.90;;;;;;5054612;28;20217;-87
2021/10/31 03:17:04;;;;;;;16.07;10.20;;;10.00;99.90;;;;;;5064799;28;20201;-87
2021/10/31 03:19:31;;;;;;;14.90;9.57;;;10.00;99.90;;;;;;5074189;28;20208;-85
2021/10/31 03:21:59;;;;;;;16.37;9.87;;;10.00;99.90;;;;;;5080195;22;20241;-87
2021/10/31 03:24:26;;;;;;;12.17;9.27;;;10.00;99.90;;;;;;5074003;28;20208;-84
2021/10/31 03:26:53;;;;;;;17.70;10.50;;;10.00;99.90;;;;;;5073979;28;20205;-87
2021/10/31 03:29:22;;;;;;;16.43;9.40;;;10.00;99.90;;;;;;5073098;28;20220;-87
2021/10/31 03:31:50;;;;;;;18.70;9.83;;;9.90;99.90;;;;;;5073789;28;20688;-85
2021/10/31 03:34:17;;;;;;;16.47;10.20;;;10.00;99.90;;;;;;5056562;28;20213;-88
2021/10/31 03:36:44;;;;;;;19.87;10.57;;;9.90;99.90;;;;;;5053876;28;20277;-85
2021/10/31 03:39:11;;;;;;;17.90;9.47;;;9.90;99.90;;;;;;5054031;28;20206;-87
2021/10/31 03:41:38;;;;;;;20.10;10.57;;;9.90;99.90;;;;;;5067078;28;20224;-87
2021/10/31 03:44:05;;;;;;;15.43;9.77;;;9.90;99.90;;;;;;5073847;28;20208;-83
2021/10/31 03:46:33;;;;;;;14.63;9.30;;;9.90;99.90;;;;;;5072953;28;20193;-89
2021/10/31 03:49:01;;;;;;;16.13;11.10;;;9.90;99.90;;;;;;5044197;28;20214;-87
2021/10/31 03:51:28;;;;;;;16.53;10.17;;;9.90;99.90;;;;;;5031651;28;20225;-85
2021/10/31 03:53:54;;;;;;;15.60;9.63;;;9.90;99.90;;;;;;5032093;28;20218;-83
2021/10/31 03:56:21;;;;;;;13.83;9.27;;;9.90;99.90;;;;;;5031455;28;20229;-83
2021/10/31 03:58:48;;;;;;;16.23;9.57;;;9.80;99.90;;;;;;5031907;28;20587;-83
2021/10/31 04:01:15;;;;;;;13.30;8.77;;;9.80;99.90;;;;;;5032113;28;20206;-85
2021/10/31 04:03:43;;;;;;;16.27;8.77;;;9.80;99.90;;;;;;5039877;28;20206;-83
2021/10/31 04:06:12;;;;;;;19.53;9.63;;;9.80;99.90;;;;;;5053032;28;20198;-88
2021/10/31 04:08:40;;;;;;;17.10;9.67;;;9.80;99.90;;;;;;5045668;28;20730;-87
2021/10/31 04:11:07;;;;;;;12.77;9.90;;;9.80;99.90;;;;;;5032154;28;20700;-87
2021/10/31 04:13:34;;;;;;;13.90;9.40;;;9.80;99.90;;;;;;5033565;28;20288;-86
2021/10/31 04:16:01;;;;;;;17.80;10.40;;;9.80;99.90;;;;;;5033545;28;20230;-89
2021/10/31 04:18:28;;;;;;;19.17;9.73;;;9.70;99.90;;;;;;5033693;28;20232;-86
2021/10/31 04:20:56;;;;;;;18.37;12.03;;;9.70;99.90;;;;;;5043485;28;20209;-87
2021/10/31 04:23:25;;;;;;;22.37;12.80;;;9.70;99.90;;;;;;5053450;28;20201;-85
2021/10/31 04:25:51;;;;;;;21.43;11.93;;;9.70;99.90;;;;;;5053429;28;20285;-90
2021/10/31 04:28:19;;;;;;;19.53;12.33;;;9.70;99.90;;;;;;5044871;28;20219;-87
2021/10/31 04:30:46;;;;;;;22.47;13.00;;;9.70;99.90;;;;;;5032844;28;20199;-85
2021/10/31 04:33:13;;;;;;;16.90;12.53;;;9.70;99.90;;;;;;5033630;28;20214;-88
2021/10/31 04:35:39;;;;;;;19.17;14.03;;;9.70;99.90;;;;;;5033116;28;20231;-85
2021/10/31 04:38:11;;;;;;;22.13;15.73;;;9.70;99.90;;;;;;5033314;28;20194;-87
2021/10/31 04:40:40;;;;;;;23.27;14.83;;;9.70;99.90;;;;;;5032455;28;20212;-86
2021/10/31 04:43:11;;;;;;;23.13;15.53;;;9.60;99.90;;;;;;5032916;28;20310;-86
2021/10/31 04:45:38;;;;;;;20.57;15.23;;;9.60;99.90;;;;;;5033182;28;20555;-88
2021/10/31 04:48:06;;;;;;;25.37;16.07;;;9.60;99.90;;;;;;5032666;28;20211;-88
2021/10/31 04:50:33;;;;;;;25.93;16.30;;;9.60;99.90;;;;;;5037116;28;20193;-86
2021/10/31 04:53:01;;;;;;;29.80;15.83;;;9.60;99.90;;;;;;5052074;28;20217;-84
2021/10/31 04:55:28;;;;;;;24.17;16.23;;;9.60;99.90;;;;;;5051962;28;21013;-86
2021/10/31 04:57:57;;;;;;;29.73;17.17;;;9.60;99.90;;;;;;5052376;28;20202;-88
2021/10/31 05:00:24;;;;;;;28.77;16.47;;;9.60;99.90;;;;;;5042787;28;20249;-85
2021/10/31 05:02:51;;;;;;;28.53;17.33;;;9.70;99.90;;;;;;5032450;28;20213;-84
2021/10/31 05:05:18;;;;;;;27.20;17.53;;;9.70;99.90;;;;;;5031372;28;20246;-82
2021/10/31 05:07:46;;;;;;;29.90;16.30;;;9.70;99.90;;;;;;5031767;28;20207;-87
2021/10/31 05:10:14;;;;;;;24.50;16.60;;;9.70;99.90;;;;;;5047170;28;20221;-85
2021/10/31 05:12:41;;;;;;;25.30;18.07;;;9.70;99.90;;;;;;5043580;28;20202;-85
2021/10/31 05:15:10;;;;;;;31.47;18.30;;;9.70;99.90;;;;;;5031484;28;20222;-85
2021/10/31 05:17:37;;;;;;;31.03;18.80;;;9.70;99.90;;;;;;5031896;28;20213;-85
2021/10/31 05:20:05;;;;;;;25.97;17.93;;;9.70;99.90;;;;;;5047429;28;20574;-90
2021/10/31 05:22:32;;;;;;;31.60;20.07;;;9.70;99.90;;;;;;5051338;28;20238;-85
2021/10/31 05:24:59;;;;;;;29.40;20.03;;;9.70;99.90;;;;;;5038707;28;20203;-87
2021/10/31 05:27:26;;;;;;;31.97;21.90;;;9.70;99.90;;;;;;5031002;28;20202;-89
2021/10/31 05:29:53;;;;;;;30.03;21.30;;;9.70;99.90;;;;;;5031415;28;20215;-89
2021/10/31 05:32:21;;;;;;;32.53;22.30;;;9.70;99.90;;;;;;5030504;28;20195;-90
2021/10/31 05:34:48;;;;;;;37.40;22.20;;;9.70;99.90;;;;;;5030598;28;20681;-88
2021/10/31 05:37:14;;;;;;;28.73;22.00;;;9.70;99.90;;;;;;5031155;28;20234;-88
2021/10/31 05:39:41;;;;;;;32.40;23.23;;;9.70;99.90;;;;;;5029681;28;20599;-89
2021/10/31 05:42:08;;;;;;;32.87;24.40;;;9.70;99.90;;;;;;5030477;28;20198;-90
2021/10/31 05:44:35;;;;;;;31.40;22.63;;;9.70;99.90;;;;;;5046796;28;20204;-88
2021/10/31 05:47:03;;;;;;;35.27;24.33;;;9.70;99.90;;;;;;5051948;28;20218;-87
2021/10/31 05:49:32;;;;;;;33.00;24.20;;;9.70;99.90;;;;;;5051490;28;20475;-87
2021/10/31 05:51:59;;;;;;;32.60;25.27;;;9.70;99.90;;;;;;5051481;28;20288;-89
2021/10/31 05:54:26;;;;;;;32.17;24.33;;;9.70;99.90;;;;;;5051924;28;20194;-88
2021/10/31 05:56:53;;;;;;;34.20;25.30;;;9.70;99.90;;;;;;5051253;28;20229;-88
2021/10/31 05:59:19;;;;;;;34.67;26.33;;;9.70;99.90;;;;;;5051171;28;20189;-90
2021/10/31 06:01:46;;;;;;;35.87;25.70;;;9.70;99.90;;;;;;5051972;28;20209;-88
2021/10/31 06:04:13;;;;;;;34.60;24.60;;;9.70;99.90;;;;;;5051564;28;20206;-86
2021/10/31 06:06:41;;;;;;;34.70;23.77;;;9.70;99.90;;;;;;5037214;28;20586;-88
2021/10/31 06:09:08;;;;;;;36.63;24.77;;;9.80;99.90;;;;;;5032215;28;20211;-87
2021/10/31 06:11:35;;;;;;;34.07;24.00;;;9.80;99.90;;;;;;5031671;28;20210;-89
2021/10/31 06:14:02;;;;;;;35.70;25.00;;;9.70;99.90;;;;;;5031893;28;20206;-88
2021/10/31 06:16:28;;;;;;;35.47;24.20;;;9.70;99.90;;;;;;5030796;28;20238;-87
2021/10/31 06:18:55;;;;;;;47.57;26.40;;;9.70;99.90;;;;;;5031395;28;20213;-86
2021/10/31 06:21:22;;;;;;;35.33;24.53;;;9.70;99.90;;;;;;5031445;28;20226;-87
2021/10/31 06:23:50;;;;;;;38.03;24.00;;;9.70;99.90;;;;;;5043816;28;20217;-85
2021/10/31 06:26:17;;;;;;;33.17;24.00;;;9.70;99.90;;;;;;5050642;28;20204;-85
2021/10/31 06:28:43;;;;;;;36.10;22.93;;;9.70;99.90;;;;;;5051129;28;20210;-85
2021/10/31 06:31:10;;;;;;;33.87;24.47;;;9.70;99.90;;;;;;5044639;28;20215;-85
2021/10/31 06:33:37;;;;;;;37.10;23.77;;;9.70;99.90;;;;;;5030580;28;20198;-85
2021/10/31 06:36:04;;;;;;;33.43;23.33;;;9.70;99.90;;;;;;5030701;28;20229;-85
2021/10/31 06:38:31;;;;;;;35.87;22.73;;;9.70;99.90;;;;;;5030471;28;20202;-87
2021/10/31 06:40:59;;;;;;;31.97;21.97;;;9.70;99.90;;;;;;5047201;28;20202;-88
2021/10/31 06:43:26;;;;;;;29.97;20.83;;;9.70;99.90;;;;;;5051065;28;20201;-83
2021/10/31 06:45:53;;;;;;;31.00;20.27;;;9.60;99.90;;;;;;5050367;28;20558;-88
2021/10/31 06:48:20;;;;;;;31.23;21.87;;;9.60;99.90;;;;;;5050917;28;20229;-84
2021/10/31 06:50:49;;;;;;;29.77;20.37;;;9.60;99.90;;;;;;5050762;28;20573;-89
2021/10/31 06:53:16;;;;;;;31.07;20.53;;;9.60;99.90;;;;;;5050676;28;20206;-87
2021/10/31 06:55:42;;;;;;;31.37;20.43;;;9.60;99.90;;;;;;5050838;28;20308;-86
2021/10/31 06:58:10;;;;;;;31.17;21.03;;;9.60;99.90;;;;;;5049810;28;20214;-90
2021/10/31 07:00:37;;;;;;;32.63;19.67;;;9.60;99.90;;;;;;5050781;28;20217;-91
2021/10/31 07:03:04;;;;;;;35.50;20.77;;;9.70;99.90;;;;;;5051026;28;20202;-88
2021/10/31 07:05:31;;;;;;;31.20;20.47;;;9.60;99.90;;;;;;5050267;28;20213;-85
2021/10/31 07:07:58;;;;;;;30.27;20.23;;;9.70;99.90;;;;;;5030363;28;20557;-85
2021/10/31 07:10:24;;;;;;;33.87;20.50;;;9.70;99.90;;;;;;5028747;28;20206;-88
2021/10/31 07:12:51;;;;;;;32.90;19.83;;;9.70;99.90;;;;;;5028676;28;20203;-89
2021/10/31 07:15:20;;;;;;;28.57;18.73;;;9.70;99.90;;;;;;5049529;28;20481;-87
2021/10/31 07:17:47;;;;;;;29.27;19.20;;;9.70;99.90;;;;;;5035737;28;20237;-87
2021/10/31 07:20:14;;;;;;;30.83;18.40;;;9.70;99.90;;;;;;5033301;28;20245;-85
2021/10/31 07:22:41;;;;;;;25.20;18.33;;;9.80;99.90;;;;;;5032767;28;20241;-88
2021/10/31 07:25:11;;;;;;;29.20;17.97;;;9.80;99.90;;;;;;5039353;28;20209;-87
2021/10/31 07:27:38;;;;;;;29.57;18.53;;;9.80;99.90;;;;;;5033470;28;20199;-87
2021/10/31 07:30:07;;;;;;;32.70;19.70;;;9.80;99.90;;;;;;5041826;28;20507;-84
2021/10/31 07:32:35;;;;;;;27.17;17.73;;;9.80;99.90;;;;;;5054946;28;20209;-87
2021/10/31 07:35:02;;;;;;;30.47;17.93;;;9.80;99.90;;;;;;5054202;28;20194;-86
2021/10/31 07:37:30;;;;;;;28.40;18.03;;;9.90;99.90;;;;;;5053810;28;20217;-87
2021/10/31 07:39:58;;;;;;;28.20;18.43;;;9.90;99.90;;;;;;5053597;28;20609;-88
2021/10/31 07:42:28;;;;;;;25.17;16.80;;;9.90;99.90;;;;;;5053780;28;20613;-90
2021/10/31 07:44:55;;;;;;;28.93;17.33;;;10.00;99.90;;;;;;5053743;28;20233;-87
2021/10/31 07:47:22;;;;;;;30.43;17.83;;;10.00;99.90;;;;;;5053952;28;20229;-87
2021/10/31 07:49:51;;;;;;;25.93;17.03;;;10.00;99.90;;;;;;5037582;28;20217;-89
2021/10/31 07:52:18;;;;;;;29.67;17.33;;;10.00;99.90;;;;;;5034174;28;20202;-88
2021/10/31 07:54:45;;;;;;;25.60;17.67;;;10.10;99.90;;;;;;5034613;28;20218;-88
2021/10/31 07:57:12;;;;;;;26.00;16.93;;;10.10;99.90;;;;;;5033018;28;20318;-83
2021/10/31 08:07:08;;;;;;;22.67;16.60;;;10.20;99.90;;;;;;4998163;28;20557;-87
2021/10/31 08:09:37;;;;;;;25.77;17.27;;;10.30;99.90;;;;;;5054275;28;20202;-89
2021/10/31 08:12:04;;;;;;;22.33;15.93;;;10.30;99.90;;;;;;5045944;28;20301;-90
2021/10/31 08:14:31;;;;;;;27.00;16.70;;;10.40;99.90;;;;;;5054337;28;20198;-90
2021/10/31 08:16:58;;;;;;;24.17;17.73;;;10.40;99.90;;;;;;5039778;28;20665;-90
2021/10/31 08:19:25;;;;;;;25.40;16.77;;;10.40;99.90;;;;;;5033717;28;20659;-86
2021/10/31 08:21:53;;;;;;;23.30;15.87;;;10.50;99.90;;;;;;5034089;28;20673;-84
2021/10/31 08:24:21;;;;;;;23.10;17.67;;;10.50;99.90;;;;;;5033314;28;20206;-89
2021/10/31 08:26:54;;;;;;;25.57;16.93;;;10.60;99.90;;;;;;5044802;28;20339;-89
2021/10/31 08:29:23;;;;;;;22.00;16.90;;;10.60;99.90;;;;;;5052995;28;20210;-89
2021/10/31 08:31:53;;;;;;;25.20;17.47;;;10.60;99.90;;;;;;5053150;28;20198;-88
2021/10/31 08:34:20;;;;;;;25.87;17.53;;;10.70;99.90;;;;;;5052294;28;20194;-87
2021/10/31 08:36:47;;;;;;;24.53;16.63;;;10.70;99.90;;;;;;5053437;28;20229;-89
2021/10/31 08:39:14;;;;;;;21.07;16.27;;;10.80;99.90;;;;;;5052737;28;20194;-88
2021/10/31 08:41:42;;;;;;;23.03;16.83;;;10.80;99.90;;;;;;5037824;28;20209;-86
2021/10/31 08:44:11;;;;;;;23.10;16.80;;;10.90;99.90;;;;;;5032628;28;20204;-90
2021/10/31 08:46:38;;;;;;;21.57;16.53;;;10.90;99.90;;;;;;5033253;28;20199;-88
2021/10/31 08:49:05;;;;;;;22.17;16.27;;;11.00;99.90;;;;;;5033929;28;20285;-88
2021/10/31 08:51:32;;;;;;;20.90;16.17;;;11.10;99.90;;;;;;5032870;28;20225;-83
2021/10/31 08:54:00;;;;;;;20.70;15.70;;;11.10;99.90;;;;;;5051415;28;20222;-87
2021/10/31 08:56:28;;;;;;;23.43;15.67;;;11.20;99.90;;;;;;5052378;28;20232;-85
2021/10/31 08:58:55;;;;;;;21.90;16.30;;;11.20;99.90;;;;;;5052518;28;20208;-86
2021/10/31 09:01:24;;;;;;;18.37;14.97;;;11.30;99.90;;;;;;5046198;28;20207;-89
2021/10/31 09:03:52;;;;;;;20.17;15.03;;;11.30;99.90;;;;;;5033415;28;20207;-87
2021/10/31 09:06:20;;;;;;;15.83;13.67;;;11.40;99.90;;;;;;5032567;28;20230;-87
2021/10/31 09:08:47;;;;;;;18.50;14.67;;;11.40;99.90;;;;;;5032583;28;20213;-89
2021/10/31 09:11:13;;;;;;;15.87;13.67;;;11.50;99.90;;;;;;5032916;28;20193;-88
2021/10/31 09:13:40;;;;;;;16.87;13.57;;;11.50;99.90;;;;;;5033414;28;20244;-89
2021/10/31 09:16:07;;;;;;;17.87;13.90;;;11.50;99.90;;;;;;5015625;28;20206;-87
2021/10/31 09:18:36;;;;;;;15.00;13.27;;;11.60;99.90;;;;;;5032660;28;20210;-88
2021/10/31 09:21:04;;;;;;;15.33;12.57;;;11.60;99.90;;;;;;5031981;28;20203;-88
2021/10/31 09:23:32;;;;;;;15.07;12.40;;;11.70;99.90;;;;;;5032391;28;20238;-88
2021/10/31 09:25:59;;;;;;;15.20;12.57;;;11.70;99.90;;;;;;5051638;28;20267;-88
2021/10/31 09:28:26;;;;;;;14.70;12.30;;;11.70;99.90;;;;;;5052265;28;20197;-88
2021/10/31 09:30:53;;;;;;;14.43;12.00;;;11.80;99.90;;;;;;5052068;28;20213;-89
2021/10/31 09:33:20;;;;;;;13.67;11.27;;;11.80;99.90;;;;;;5052028;28;20629;-86
2021/10/31 09:35:51;;;;;;;13.43;11.37;;;11.80;99.90;;;;;;5052547;28;20198;-85
2021/10/31 09:38:20;;;;;;;13.77;10.83;;;11.90;99.90;;;;;;5051293;28;20243;-89
2021/10/31 09:40:48;;;;;;;13.90;11.27;;;11.90;99.90;;;;;;5051042;28;20209;-86
2021/10/31 09:43:15;;;;;;;14.60;11.47;;;11.90;99.90;;;;;;5051244;28;20736;-84
2021/10/31 09:45:43;;;;;;;14.50;10.63;;;11.90;99.90;;;;;;5048753;28;20202;-87
2021/10/31 09:48:12;;;;;;;12.20;11.00;;;11.90;99.90;;;;;;5032199;28;20229;-84
2021/10/31 09:50:41;;;;;;;10.83;9.73;;;11.90;99.90;;;;;;5031723;28;20253;-85
2021/10/31 09:53:10;;;;;;;12.13;10.43;;;12.00;99.90;;;;;;5031592;28;20206;-86
2021/10/31 09:55:40;;;;;;;10.40;9.17;;;12.00;99.90;;;;;;5034923;28;20202;-85
2021/10/31 09:58:15;;;;;;;10.47;8.97;;;12.00;99.90;;;;;;5051147;28;20233;-86
2021/10/31 10:00:46;;;;;;;13.10;9.67;;;12.00;99.90;;;;;;5051363;28;20198;-88
2021/10/31 10:06:18;;;;;;;14.70;9.73;;;12.10;99.90;;;;;;5051415;28;20197;-85
2021/10/31 10:09:01;;;;;;;10.40;8.53;;;12.10;99.90;;;;;;5050846;28;20632;-85
2021/10/31 10:11:30;;;;;;;11.53;8.20;;;12.10;99.90;;;;;;5040762;28;20272;-86
2021/10/31 10:14:12;;;;;;;9.30;8.30;;;12.10;99.90;;;;;;5028647;28;20205;-85
2021/10/31 10:16:40;;;;;;;9.23;7.17;;;12.10;99.90;;;;;;5030877;28;20210;-85
2021/10/31 10:19:16;;;;;;;10.50;8.43;;;12.10;99.90;;;;;;5030924;28;20198;-84
2021/10/31 10:21:43;;;;;;;8.17;7.43;;;12.10;99.90;;;;;;5031252;28;20233;-87
2021/10/31 10:24:13;;;;;;;9.73;8.67;;;12.10;99.90;;;;;;5030995;28;20214;-86
2021/10/31 10:26:42;;;;;;;9.33;7.80;;;12.10;99.90;;;;;;5050641;28;20257;-85
2021/10/31 10:29:15;;;;;;;9.57;7.63;;;12.10;99.90;;;;;;5050546;28;20210;-85
2021/10/31 10:31:43;;;;;;;8.53;7.73;;;12.10;99.90;;;;;;5051397;28;20630;-84
2021/10/31 10:34:11;;;;;;;9.80;8.53;;;12.10;99.90;;;;;;5050851;28;20194;-86
2021/10/31 10:36:40;;;;;;;8.93;7.83;;;12.10;99.90;;;;;;5050879;28;20214;-86
2021/10/31 10:39:09;;;;;;;10.20;7.20;;;12.10;99.90;;;;;;5050853;28;20202;-89
2021/10/31 10:41:49;;;;;;;9.00;7.17;;;12.20;99.90;;;;;;5049554;28;20212;-84
2021/10/31 10:44:24;;;;;;;8.87;7.70;;;12.20;99.90;;;;;;5030878;28;20713;-85
2021/10/31 10:46:53;;;;;;;8.73;7.83;;;12.20;99.90;;;;;;5030577;28;20829;-87
2021/10/31 10:49:21;;;;;;;8.03;7.23;;;12.30;99.90;;;;;;5030427;28;20583;-83
2021/10/31 10:52:11;;;;;;;9.13;7.80;;;12.40;99.90;;;;;;5032091;28;20334;-84
2021/10/31 10:54:45;;;;;;;9.03;7.43;;;12.40;99.90;;;;;;5033712;28;20347;-84
2021/10/31 10:57:14;;;;;;;9.07;8.00;;;12.40;99.90;;;;;;5034170;28;20225;-83
2021/10/31 10:59:41;;;;;;;11.87;7.73;;;12.40;99.90;;;;;;5033757;28;20874;-84
2021/10/31 11:02:10;;;;;;;8.83;7.93;;;12.50;99.90;;;;;;5034221;28;20234;-88
2021/10/31 11:04:38;;;;;;;8.93;7.40;;;12.50;99.90;;;;;;5033750;28;20205;-86
2021/10/31 11:07:05;;;;;;;8.07;7.13;;;12.50;99.90;;;;;;5033605;28;20879;-86
2021/10/31 11:09:40;;;;;;;9.57;7.30;;;12.50;99.90;;;;;;5034417;28;20195;-83
2021/10/31 11:12:37;;;;;;;7.83;7.07;;;12.50;99.90;;;;;;5034271;28;20202;-83
2021/10/31 11:15:06;;;;;;;8.80;7.17;;;12.50;99.90;;;;;;5034696;28;20211;-87
2021/10/31 11:17:34;;;;;;;10.30;7.30;;;12.50;99.90;;;;;;5034133;28;20210;-85
2021/10/31 11:20:02;;;;;;;7.73;7.00;;;12.50;99.90;;;;;;5033896;28;20520;-87
2021/10/31 11:22:31;;;;;;;10.93;6.57;;;12.50;99.90;;;;;;5033991;28;20226;-86
2021/10/31 11:25:00;;;;;;;6.83;6.13;;;12.50;99.90;;;;;;5033008;28;20211;-81
2021/10/31 11:27:31;;;;;;;7.47;6.30;;;12.50;99.90;;;;;;5033575;28;20205;-84
2021/10/31 11:29:59;;;;;;;7.00;6.27;;;12.50;99.90;;;;;;5033655;28;20252;-85
2021/10/31 11:32:28;;;;;;;7.30;6.53;;;12.50;99.90;;;;;;5039070;28;20583;-84
2021/10/31 11:34:57;;;;;;;8.70;6.40;;;12.60;99.90;;;;;;5054643;28;20289;-86
2021/10/31 11:37:28;;;;;;;7.50;6.17;;;12.60;99.90;;;;;;5039950;28;20222;-85
2021/10/31 11:39:57;;;;;;;8.37;6.70;;;12.60;99.90;;;;;;5034025;28;20206;-87
2021/10/31 11:42:26;;;;;;;6.80;6.10;;;12.60;99.90;;;;;;5031550;28;20240;-84
2021/10/31 11:45:11;;;;;;;7.07;6.37;;;12.60;99.90;;;;;;5031836;28;20206;-84
2021/10/31 11:47:40;;;;;;;6.50;5.87;;;12.60;99.90;;;;;;5034544;28;20234;-87
2021/10/31 11:50:11;;;;;;;7.40;5.93;;;12.70;99.90;;;;;;5032998;28;20203;-87
2021/10/31 11:52:56;;;;;;;8.63;6.33;;;12.70;99.90;;;;;;5033535;28;20206;-85
2021/10/31 11:56:00;;;;;;;6.40;5.70;;;12.70;99.90;;;;;;5034708;28;20208;-82
2021/10/31 11:58:54;;;;;;;6.43;5.80;;;12.70;99.90;;;;;;5051019;28;20261;-85
2021/10/31 12:01:34;;;;;;;6.40;5.63;;;12.70;99.90;;;;;;5048778;28;20202;-85
2021/10/31 12:04:04;;;;;;;6.00;4.90;;;12.70;99.90;;;;;;5048602;28;20205;-85
2021/10/31 12:06:53;;;;;;;6.00;4.97;;;12.70;99.90;;;;;;5050653;28;20210;-84
2021/10/31 12:09:23;;;;;;;7.07;5.60;;;12.70;99.90;;;;;;5051445;28;20200;-84
2021/10/31 12:12:15;;;;;;;6.70;5.10;;;12.70;99.90;;;;;;5050618;28;20209;-86
2021/10/31 12:14:47;;;;;;;5.40;4.77;;;12.70;99.90;;;;;;5051747;28;20240;-84
2021/10/31 12:17:16;;;;;;;6.90;4.63;;;12.70;99.90;;;;;;5050881;28;20206;-84
2021/10/31 12:19:44;;;;;;;5.77;5.20;;;12.70;99.90;;;;;;5052053;28;20294;-86
2021/10/31 12:22:13;;;;;;;5.97;4.80;;;12.70;99.90;;;;;;5051483;28;20252;-84
2021/10/31 12:24:41;;;;;;;7.50;4.90;;;12.70;99.90;;;;;;5048524;28;20296;-87
2021/10/31 12:27:15;;;;;;;7.10;4.60;;;12.80;99.90;;;;;;5049703;28;20208;-84
2021/10/31 12:29:52;;;;;;;6.07;4.43;;;12.70;99.90;;;;;;5051177;28;20209;-83
2021/10/31 12:32:22;;;;;;;6.10;4.20;;;12.70;99.90;;;;;;5017049;28;20788;-86
2021/10/31 12:34:50;;;;;;;7.20;4.00;;;12.70;99.90;;;;;;5048732;28;20213;-83
2021/10/31 12:37:29;;;;;;;6.77;4.50;;;12.70;99.90;;;;;;5048727;28;20209;-83
2021/10/31 12:39:58;;;;;;;3.87;3.50;;;12.70;99.90;;;;;;5048826;28;20726;-81
2021/10/31 12:42:29;;;;;;;4.27;3.87;;;12.70;99.90;;;;;;5049469;28;20206;-83
2021/10/31 12:44:59;;;;;;;6.30;4.17;;;12.70;99.90;;;;;;5047566;28;20409;-82
2021/10/31 12:47:37;;;;;;;4.90;3.70;;;12.70;99.90;;;;;;5046576;28;20225;-82
2021/10/31 12:50:14;;;;;;;5.43;3.50;;;12.60;99.90;;;;;;5051060;28;20255;-85
2021/10/31 12:52:42;;;;;;;4.77;3.50;;;12.60;99.90;;;;;;5047795;28;20621;-81
2021/10/31 12:55:11;;;;;;;3.80;3.40;;;12.60;99.90;;;;;;5047821;28;20213;-85
2021/10/31 12:57:39;;;;;;;6.37;3.00;;;12.70;99.90;;;;;;5050133;28;20863;-84
2021/10/31 13:00:08;;;;;;;3.33;3.00;;;12.60;99.90;;;;;;5050532;28;20202;-87